Flemington, MO (65650)

10:53 CDT le 30 octobre 2014 (GMT -0500)
7 Miles NE of Bolivar | Change Station
CLOSE
Current Station
Stations météorologiques personnelles
Location: Bolivar, MO
Altitude: 1073 ft
Stations météo à proximité
Avis météorologiques actifs: Freeze Warning

Alt. 1073 ft 37.67 °N, 93.35 °W | Updated 14 minutes ago

Pluie
Pluie
50.9 ° F
Paraît 50.9 ° F
N
4.2
Vent Variable Vent de Sud

Aujourd'hui
Haut(e) -- | Bas -- ° F
--% Risque de précip.
Hier
Haut(e) -- | Bas -- ° F
Precip. -- pouce
7:37 AM 6:17 PM
Lune montante, 45% visible
Pression 30.09 pouce
Visibilité 10.0 Miles terrestres
Nuages Peu 6000 ft
Couvert 8000 ft
Point de rosée 47 ° F
Humidité 86%
Précipitations 0.02 pouce
Profondeur de la couche neigeuse Non disponible.
UV 1 sur 12
Pollen 1.90 sur 12
Qualité de l'air Non disponible.
Flu Activity Non disponible.
METAR KSGF 301452Z 18010KT 10SM -RA FEW060 OVC080 09/06 A3009

More Conditions Fewer Conditions

Pression 30.09 pouce
Visibilité 10.0 Miles terrestres
Nuages Peu 6000 ft
Couvert 8000 ft
Point de rosée 47 ° F
Humidité 86%
Précipitations 0.02 pouce
Profondeur de la couche neigeuse Non disponible.
UV 1 sur 12
Pollen 1.90 sur 12
Qualité de l'air Non disponible.
Flu Activity Non disponible.
METAR KSGF 301452Z 18010KT 10SM -RA FEW060 OVC080 09/06 A3009

More Conditions Fewer Conditions

10-Day Weather Forecast

Almanac

Astronomie

Oct. 30, 2014 Lever Coucher
Temps réel
Crépuscule civil
Crépuscule nautique
Crépuscule astronomique
Lune
Durée de lumière visible
Longueur du jour
Tomorrow will be .
, % of the Moon is Illuminated

Extrêmes aujourd'hui

State Highs State Lows

Community

WunderPhotos

Upload Photos

1,766,389 Photos téléchargées !

WunderBlogs® & News

Nearby

Qualité de l'air

  Qualité de l'air Indice de la qualité de l'air Polluant
Not available.

Épaisseur de neige

Station Depth Altitude

Activité sismique

Ville Distance Mag. Time & Date
Minimum magnitude displayed is 2.5.

Températures des eaux côtières

Lieu Température

Stations météo à proximité